sensor_id;sensor_type;location;lat;lon;timestamp;pressure;altitude;pressure_sealevel;temperature;humidity
42887;BME280;29032;56.028;92.904;2023-02-02T00:02:14;101106.09;;;-15.07;42.64
42887;BME280;29032;56.028;92.904;2023-02-02T00:07:16;101113.69;;;-15.09;42.23
42887;BME280;29032;56.028;92.904;2023-02-02T00:12:18;101106.09;;;-15.07;42.06
42887;BME280;29032;56.028;92.904;2023-02-02T00:17:22;101095.16;;;-15.15;41.57
42887;BME280;29032;56.028;92.904;2023-02-02T00:22:24;101094.19;;;-15.34;41.94
42887;BME280;29032;56.028;92.904;2023-02-02T00:27:26;101100.56;;;-15.39;41.96
42887;BME280;29032;56.028;92.904;2023-02-02T00:32:30;101107.63;;;-15.47;41.75
42887;BME280;29032;56.028;92.904;2023-02-02T00:37:32;101108.75;;;-15.60;41.88
42887;BME280;29032;56.028;92.904;2023-02-02T00:42:34;101119.25;;;-15.67;42.32
42887;BME280;29032;56.028;92.904;2023-02-02T00:47:38;101122.94;;;-15.47;41.89
42887;BME280;29032;56.028;92.904;2023-02-02T00:52:40;101129.63;;;-15.29;40.89
42887;BME280;29032;56.028;92.904;2023-02-02T00:57:43;101126.94;;;-15.29;41.33
42887;BME280;29032;56.028;92.904;2023-02-02T01:02:46;101132.53;;;-15.34;41.26
42887;BME280;29032;56.028;92.904;2023-02-02T01:07:48;101126.28;;;-15.38;41.19
42887;BME280;29032;56.028;92.904;2023-02-02T01:12:51;101128.72;;;-15.33;41.04
42887;BME280;29032;56.028;92.904;2023-02-02T01:17:54;101124.28;;;-15.41;41.13
42887;BME280;29032;56.028;92.904;2023-02-02T01:22:57;101121.94;;;-15.55;41.35
42887;BME280;29032;56.028;92.904;2023-02-02T01:27:59;101131.75;;;-15.59;41.47
42887;BME280;29032;56.028;92.904;2023-02-02T01:33:04;101136.56;;;-15.52;41.56
42887;BME280;29032;56.028;92.904;2023-02-02T01:38:06;101140.59;;;-15.46;41.89
42887;BME280;29032;56.028;92.904;2023-02-02T01:43:20;101140.59;;;-15.34;41.66
42887;BME280;29032;56.028;92.904;2023-02-02T01:48:27;101148.09;;;-15.39;41.76
42887;BME280;29032;56.028;92.904;2023-02-02T01:53:30;101139.72;;;-15.50;41.65
42887;BME280;29032;56.028;92.904;2023-02-02T01:58:36;101139.81;;;-15.47;41.61
42887;BME280;29032;56.028;92.904;2023-02-02T02:03:41;101146.88;;;-15.54;40.84
42887;BME280;29032;56.028;92.904;2023-02-02T02:08:48;101156.25;;;-15.60;41.58
42887;BME280;29032;56.028;92.904;2023-02-02T02:13:51;101150.88;;;-15.60;41.24
42887;BME280;29032;56.028;92.904;2023-02-02T02:19:07;101135.56;;;-15.84;41.52
42887;BME280;29032;56.028;92.904;2023-02-02T02:30:10;101151.16;;;-16.23;41.19
42887;BME280;29032;56.028;92.904;2023-02-02T02:35:23;101149.44;;;-16.40;42.38
42887;BME280;29032;56.028;92.904;2023-02-02T02:40:35;101145.56;;;-16.30;42.39
42887;BME280;29032;56.028;92.904;2023-02-02T02:45:40;101146.63;;;-16.43;42.55
42887;BME280;29032;56.028;92.904;2023-02-02T02:50:46;101140.63;;;-16.40;42.65
42887;BME280;29032;56.028;92.904;2023-02-02T02:55:53;101142.22;;;-16.15;42.80
42887;BME280;29032;56.028;92.904;2023-02-02T03:01:06;101146.84;;;-15.91;42.19
42887;BME280;29032;56.028;92.904;2023-02-02T03:06:18;101149.97;;;-15.89;42.17
42887;BME280;29032;56.028;92.904;2023-02-02T03:11:22;101160.47;;;-15.96;42.66
42887;BME280;29032;56.028;92.904;2023-02-02T03:16:24;101157.38;;;-15.86;42.14
42887;BME280;29032;56.028;92.904;2023-02-02T03:21:28;101148.19;;;-15.73;42.31
42887;BME280;29032;56.028;92.904;2023-02-02T03:26:31;101147.88;;;-15.71;41.91
42887;BME280;29032;56.028;92.904;2023-02-02T03:31:33;101140.59;;;-15.71;42.79
42887;BME280;29032;56.028;92.904;2023-02-02T03:36:36;101129.53;;;-15.57;44.43
42887;BME280;29032;56.028;92.904;2023-02-02T03:41:39;101136.34;;;-15.47;45.08
42887;BME280;29032;56.028;92.904;2023-02-02T03:46:41;101143.50;;;-15.27;43.70
42887;BME280;29032;56.028;92.904;2023-02-02T03:51:44;101141.34;;;-15.09;43.54
42887;BME280;29032;56.028;92.904;2023-02-02T03:56:46;101143.19;;;-14.85;42.83
42887;BME280;29032;56.028;92.904;2023-02-02T04:01:49;101143.66;;;-14.67;42.83
42887;BME280;29032;56.028;92.904;2023-02-02T04:06:52;101163.59;;;-14.40;41.93
42887;BME280;29032;56.028;92.904;2023-02-02T04:11:54;101144.88;;;-14.21;41.55
42887;BME280;29032;56.028;92.904;2023-02-02T04:16:56;101149.94;;;-14.04;41.87
42887;BME280;29032;56.028;92.904;2023-02-02T04:22:00;101143.00;;;-14.05;42.02
42887;BME280;29032;56.028;92.904;2023-02-02T04:27:02;101139.00;;;-14.11;42.31
42887;BME280;29032;56.028;92.904;2023-02-02T04:32:04;101143.78;;;-14.04;42.74
42887;BME280;29032;56.028;92.904;2023-02-02T04:37:08;101144.91;;;-13.89;42.64
42887;BME280;29032;56.028;92.904;2023-02-02T04:42:11;101131.31;;;-13.81;42.38
42887;BME280;29032;56.028;92.904;2023-02-02T04:47:13;101117.06;;;-13.81;42.61
42887;BME280;29032;56.028;92.904;2023-02-02T04:52:16;101113.06;;;-13.87;42.40
42887;BME280;29032;56.028;92.904;2023-02-02T04:57:19;101101.63;;;-14.00;43.09
42887;BME280;29032;56.028;92.904;2023-02-02T05:02:21;101107.78;;;-13.99;42.99
42887;BME280;29032;56.028;92.904;2023-02-02T05:07:24;101108.97;;;-13.97;42.91
42887;BME280;29032;56.028;92.904;2023-02-02T05:12:26;101106.28;;;-13.97;42.94
42887;BME280;29032;56.028;92.904;2023-02-02T05:17:29;101104.97;;;-14.19;44.34
42887;BME280;29032;56.028;92.904;2023-02-02T05:22:32;101097.38;;;-14.17;44.17
42887;BME280;29032;56.028;92.904;2023-02-02T05:27:35;101097.28;;;-14.05;44.26
42887;BME280;29032;56.028;92.904;2023-02-02T05:32:37;101097.38;;;-13.85;44.41
42887;BME280;29032;56.028;92.904;2023-02-02T05:37:41;101084.22;;;-13.55;43.64
42887;BME280;29032;56.028;92.904;2023-02-02T05:42:47;101091.66;;;-13.13;43.08
42887;BME280;29032;56.028;92.904;2023-02-02T05:47:49;101091.19;;;-12.80;42.62
42887;BME280;29032;56.028;92.904;2023-02-02T05:52:55;101094.50;;;-12.48;42.85
42887;BME280;29032;56.028;92.904;2023-02-02T05:57:58;101090.00;;;-12.18;42.39
42887;BME280;29032;56.028;92.904;2023-02-02T06:03:00;101093.56;;;-11.87;42.11
42887;BME280;29032;56.028;92.904;2023-02-02T06:08:04;101101.63;;;-11.64;42.16
42887;BME280;29032;56.028;92.904;2023-02-02T06:13:06;101088.81;;;-11.44;42.05
42887;BME280;29032;56.028;92.904;2023-02-02T06:18:09;101097.56;;;-11.25;41.65
42887;BME280;29032;56.028;92.904;2023-02-02T06:23:12;101096.78;;;-11.25;42.33
42887;BME280;29032;56.028;92.904;2023-02-02T06:28:15;101089.56;;;-11.17;41.62
42887;BME280;29032;56.028;92.904;2023-02-02T06:33:23;101085.31;;;-11.18;42.62
42887;BME280;29032;56.028;92.904;2023-02-02T06:38:27;101077.59;;;-11.16;42.27
42887;BME280;29032;56.028;92.904;2023-02-02T06:43:30;101058.47;;;-11.04;41.48
42887;BME280;29032;56.028;92.904;2023-02-02T06:48:33;101062.09;;;-10.93;41.87
42887;BME280;29032;56.028;92.904;2023-02-02T06:53:36;101054.53;;;-10.77;41.80
42887;BME280;29032;56.028;92.904;2023-02-02T06:58:39;101055.91;;;-10.56;41.20
42887;BME280;29032;56.028;92.904;2023-02-02T07:03:41;101056.06;;;-10.38;40.96
42887;BME280;29032;56.028;92.904;2023-02-02T07:08:45;101051.94;;;-10.29;41.39
42887;BME280;29032;56.028;92.904;2023-02-02T07:13:48;101048.56;;;-10.11;40.27
42887;BME280;29032;56.028;92.904;2023-02-02T07:18:50;101050.28;;;-9.93;40.75
42887;BME280;29032;56.028;92.904;2023-02-02T07:23:54;101045.03;;;-9.68;39.78
42887;BME280;29032;56.028;92.904;2023-02-02T07:28:56;101042.19;;;-9.23;39.62
42887;BME280;29032;56.028;92.904;2023-02-02T07:33:59;101043.09;;;-8.91;39.21
42887;BME280;29032;56.028;92.904;2023-02-02T07:39:03;101041.59;;;-8.74;38.73
42887;BME280;29032;56.028;92.904;2023-02-02T07:44:06;101034.66;;;-8.57;38.42
42887;BME280;29032;56.028;92.904;2023-02-02T07:49:13;101033.06;;;-8.72;38.25
42887;BME280;29032;56.028;92.904;2023-02-02T07:54:17;101030.78;;;-8.60;38.33
42887;BME280;29032;56.028;92.904;2023-02-02T07:59:19;101034.69;;;-8.39;37.94
42887;BME280;29032;56.028;92.904;2023-02-02T08:04:21;101030.41;;;-8.12;38.05
42887;BME280;29032;56.028;92.904;2023-02-02T08:09:25;101026.94;;;-7.95;37.19
42887;BME280;29032;56.028;92.904;2023-02-02T08:14:27;101028.09;;;-8.03;37.76
42887;BME280;29032;56.028;92.904;2023-02-02T08:19:29;101026.16;;;-8.38;38.21
42887;BME280;29032;56.028;92.904;2023-02-02T08:24:33;101020.63;;;-8.84;38.25
42887;BME280;29032;56.028;92.904;2023-02-02T08:29:36;101024.28;;;-9.42;39.37
42887;BME280;29032;56.028;92.904;2023-02-02T08:34:39;101013.25;;;-9.78;39.82
42887;BME280;29032;56.028;92.904;2023-02-02T08:39:42;101016.19;;;-9.97;40.51
42887;BME280;29032;56.028;92.904;2023-02-02T08:44:45;101009.94;;;-10.08;41.07
42887;BME280;29032;56.028;92.904;2023-02-02T08:49:47;101009.84;;;-10.23;41.69
42887;BME280;29032;56.028;92.904;2023-02-02T08:54:50;101001.31;;;-10.25;41.83
42887;BME280;29032;56.028;92.904;2023-02-02T08:59:52;100963.25;;;-10.46;41.92
42887;BME280;29032;56.028;92.904;2023-02-02T09:04:55;101010.25;;;-10.17;41.53
42887;BME280;29032;56.028;92.904;2023-02-02T09:09:59;100997.19;;;-10.04;40.88
42887;BME280;29032;56.028;92.904;2023-02-02T09:15:01;101010.25;;;-10.21;41.55
42887;BME280;29032;56.028;92.904;2023-02-02T09:20:04;101006.19;;;-10.41;41.55
42887;BME280;29032;56.028;92.904;2023-02-02T09:25:08;100998.88;;;-10.37;41.94
42887;BME280;29032;56.028;92.904;2023-02-02T09:30:11;101005.22;;;-10.19;41.36
42887;BME280;29032;56.028;92.904;2023-02-02T09:35:13;101002.63;;;-10.04;41.69
42887;BME280;29032;56.028;92.904;2023-02-02T09:40:18;100994.59;;;-9.90;40.70
42887;BME280;29032;56.028;92.904;2023-02-02T09:45:26;101005.50;;;-9.76;41.11
42887;BME280;29032;56.028;92.904;2023-02-02T09:50:38;100993.13;;;-9.77;40.26
42887;BME280;29032;56.028;92.904;2023-02-02T09:55:45;101008.25;;;-9.69;40.41
42887;BME280;29032;56.028;92.904;2023-02-02T10:00:55;100999.41;;;-9.66;40.23
42887;BME280;29032;56.028;92.904;2023-02-02T10:06:05;101001.69;;;-9.71;40.27
42887;BME280;29032;56.028;92.904;2023-02-02T10:11:27;100998.97;;;-9.71;40.32
42887;BME280;29032;56.028;92.904;2023-02-02T10:16:30;100996.59;;;-9.80;40.49
42887;BME280;29032;56.028;92.904;2023-02-02T10:21:40;101012.34;;;-10.00;40.56
42887;BME280;29032;56.028;92.904;2023-02-02T10:26:47;101007.53;;;-10.21;41.13
42887;BME280;29032;56.028;92.904;2023-02-02T10:31:58;101009.09;;;-10.20;41.02
42887;BME280;29032;56.028;92.904;2023-02-02T10:37:19;101009.69;;;-10.37;41.13
42887;BME280;29032;56.028;92.904;2023-02-02T10:42:33;101001.03;;;-10.57;40.82
42887;BME280;29032;56.028;92.904;2023-02-02T10:47:41;101000.19;;;-10.64;41.30
42887;BME280;29032;56.028;92.904;2023-02-02T10:52:46;101005.69;;;-10.57;40.78
42887;BME280;29032;56.028;92.904;2023-02-02T10:57:57;100995.25;;;-10.55;40.51
42887;BME280;29032;56.028;92.904;2023-02-02T11:03:02;100999.50;;;-10.54;41.26
42887;BME280;29032;56.028;92.904;2023-02-02T11:08:15;100989.50;;;-10.50;40.93
42887;BME280;29032;56.028;92.904;2023-02-02T11:13:27;100995.66;;;-10.53;40.51
42887;BME280;29032;56.028;92.904;2023-02-02T11:18:30;101002.16;;;-10.61;40.92
42887;BME280;29032;56.028;92.904;2023-02-02T11:23:32;100998.97;;;-10.71;42.00
42887;BME280;29032;56.028;92.904;2023-02-02T11:28:36;101010.13;;;-10.76;41.82
42887;BME280;29032;56.028;92.904;2023-02-02T11:33:38;101004.09;;;-10.99;42.28
42887;BME280;29032;56.028;92.904;2023-02-02T11:38:40;101008.97;;;-11.08;42.36
42887;BME280;29032;56.028;92.904;2023-02-02T11:43:50;101009.19;;;-10.90;42.35
42887;BME280;29032;56.028;92.904;2023-02-02T11:48:57;101006.88;;;-10.88;42.34
42887;BME280;29032;56.028;92.904;2023-02-02T11:54:03;101014.13;;;-11.00;42.13
42887;BME280;29032;56.028;92.904;2023-02-02T11:59:26;101012.44;;;-11.11;41.93
42887;BME280;29032;56.028;92.904;2023-02-02T12:04:29;101007.41;;;-11.13;42.56
42887;BME280;29032;56.028;92.904;2023-02-02T12:09:31;101002.63;;;-11.23;42.23
42887;BME280;29032;56.028;92.904;2023-02-02T12:14:44;100983.00;;;-11.50;42.25
42887;BME280;29032;56.028;92.904;2023-02-02T12:20:05;100987.28;;;-11.49;42.59
42887;BME280;29032;56.028;92.904;2023-02-02T12:25:27;100993.72;;;-11.57;42.50
42887;BME280;29032;56.028;92.904;2023-02-02T12:30:41;100977.50;;;-11.57;42.73
42887;BME280;29032;56.028;92.904;2023-02-02T12:35:57;100972.19;;;-11.50;42.03
42887;BME280;29032;56.028;92.904;2023-02-02T12:41:22;100969.97;;;-11.44;41.92
42887;BME280;29032;56.028;92.904;2023-02-02T12:46:45;100963.94;;;-11.64;42.25
42887;BME280;29032;56.028;92.904;2023-02-02T12:52:06;100958.13;;;-11.66;42.43
42887;BME280;29032;56.028;92.904;2023-02-02T12:57:17;100956.66;;;-11.60;41.91
42887;BME280;29032;56.028;92.904;2023-02-02T13:02:29;100942.06;;;-11.56;42.95
42887;BME280;29032;56.028;92.904;2023-02-02T13:07:39;100939.56;;;-11.38;43.63
42887;BME280;29032;56.028;92.904;2023-02-02T13:12:45;100926.34;;;-11.13;43.65
42887;BME280;29032;56.028;92.904;2023-02-02T13:17:53;100934.28;;;-10.90;43.33
42887;BME280;29032;56.028;92.904;2023-02-02T13:22:58;100931.72;;;-10.76;42.43
42887;BME280;29032;56.028;92.904;2023-02-02T13:28:03;100934.47;;;-10.68;42.09
42887;BME280;29032;56.028;92.904;2023-02-02T13:33:14;100933.38;;;-10.60;42.05
42887;BME280;29032;56.028;92.904;2023-02-02T13:38:21;100930.72;;;-10.53;42.38
42887;BME280;29032;56.028;92.904;2023-02-02T13:43:33;100929.25;;;-10.47;42.16
42887;BME280;29032;56.028;92.904;2023-02-02T13:48:49;100923.00;;;-10.51;42.22
42887;BME280;29032;56.028;92.904;2023-02-02T13:54:11;100924.16;;;-10.56;41.93
42887;BME280;29032;56.028;92.904;2023-02-02T13:59:34;100935.75;;;-10.55;41.79
42887;BME280;29032;56.028;92.904;2023-02-02T14:04:41;100923.72;;;-10.61;42.23
42887;BME280;29032;56.028;92.904;2023-02-02T14:09:47;100912.94;;;-10.58;42.30
42887;BME280;29032;56.028;92.904;2023-02-02T14:14:49;100911.34;;;-10.62;41.47
42887;BME280;29032;56.028;92.904;2023-02-02T14:19:54;100908.91;;;-10.75;42.07
42887;BME280;29032;56.028;92.904;2023-02-02T14:24:58;100921.22;;;-10.81;41.90
42887;BME280;29032;56.028;92.904;2023-02-02T14:30:00;100913.88;;;-10.84;41.77
42887;BME280;29032;56.028;92.904;2023-02-02T14:40:46;100916.13;;;-10.89;41.77
42887;BME280;29032;56.028;92.904;2023-02-02T14:46:25;100906.00;;;-11.00;41.12
42887;BME280;29032;56.028;92.904;2023-02-02T14:51:42;100896.16;;;-11.18;42.05
42887;BME280;29032;56.028;92.904;2023-02-02T14:56:48;100900.03;;;-11.19;42.07
42887;BME280;29032;56.028;92.904;2023-02-02T15:01:55;100903.88;;;-11.20;42.31
42887;BME280;29032;56.028;92.904;2023-02-02T15:13:02;100887.03;;;-11.07;42.05
42887;BME280;29032;56.028;92.904;2023-02-02T15:18:12;100888.66;;;-10.99;42.00
42887;BME280;29032;56.028;92.904;2023-02-02T15:23:23;100874.00;;;-10.94;41.39
42887;BME280;29032;56.028;92.904;2023-02-02T15:28:36;100873.97;;;-10.98;41.05
42887;BME280;29032;56.028;92.904;2023-02-02T15:33:44;100874.78;;;-11.34;41.53
42887;BME280;29032;56.028;92.904;2023-02-02T15:38:49;100876.75;;;-11.65;41.22
42887;BME280;29032;56.028;92.904;2023-02-02T15:43:54;100876.09;;;-11.88;41.81
42887;BME280;29032;56.028;92.904;2023-02-02T15:49:14;100873.53;;;-12.11;41.84
42887;BME280;29032;56.028;92.904;2023-02-02T15:54:24;100873.38;;;-12.22;41.88
42887;BME280;29032;56.028;92.904;2023-02-02T15:59:36;100868.31;;;-12.27;41.47
42887;BME280;29032;56.028;92.904;2023-02-02T16:04:40;100866.19;;;-12.41;41.23
42887;BME280;29032;56.028;92.904;2023-02-02T16:09:43;100874.59;;;-12.46;41.38
42887;BME280;29032;56.028;92.904;2023-02-02T16:14:48;100863.41;;;-12.71;41.65
42887;BME280;29032;56.028;92.904;2023-02-02T16:19:56;100857.63;;;-12.96;42.44
42887;BME280;29032;56.028;92.904;2023-02-02T16:25:02;100849.31;;;-13.10;42.21
42887;BME280;29032;56.028;92.904;2023-02-02T16:30:14;100839.03;;;-13.04;43.05
42887;BME280;29032;56.028;92.904;2023-02-02T16:35:30;100843.97;;;-12.83;42.01
42887;BME280;29032;56.028;92.904;2023-02-02T16:40:33;100837.66;;;-12.68;41.99
42887;BME280;29032;56.028;92.904;2023-02-02T16:45:42;100831.84;;;-12.70;41.93
42887;BME280;29032;56.028;92.904;2023-02-02T16:50:47;100822.91;;;-13.01;42.39
42887;BME280;29032;56.028;92.904;2023-02-02T16:56:04;100808.06;;;-13.14;42.17
42887;BME280;29032;56.028;92.904;2023-02-02T17:01:09;100820.50;;;-13.06;41.91
42887;BME280;29032;56.028;92.904;2023-02-02T17:06:13;100814.72;;;-13.08;41.91
42887;BME280;29032;56.028;92.904;2023-02-02T17:11:22;100812.09;;;-13.04;41.93
42887;BME280;29032;56.028;92.904;2023-02-02T17:16:26;100815.41;;;-12.88;41.51
42887;BME280;29032;56.028;92.904;2023-02-02T17:21:29;100801.00;;;-12.73;41.25
42887;BME280;29032;56.028;92.904;2023-02-02T17:26:31;100793.13;;;-12.85;41.09
42887;BME280;29032;56.028;92.904;2023-02-02T17:31:35;100796.84;;;-12.93;40.92
42887;BME280;29032;56.028;92.904;2023-02-02T17:36:37;100802.22;;;-12.97;41.06
42887;BME280;29032;56.028;92.904;2023-02-02T17:41:39;100797.25;;;-12.91;41.38
42887;BME280;29032;56.028;92.904;2023-02-02T17:46:43;100803.75;;;-12.96;40.77
42887;BME280;29032;56.028;92.904;2023-02-02T17:51:45;100796.72;;;-13.04;40.54
42887;BME280;29032;56.028;92.904;2023-02-02T17:56:47;100798.50;;;-13.34;40.49
42887;BME280;29032;56.028;92.904;2023-02-02T18:01:51;100788.78;;;-13.62;41.37
42887;BME280;29032;56.028;92.904;2023-02-02T18:06:53;100790.94;;;-13.71;41.32
42887;BME280;29032;56.028;92.904;2023-02-02T18:11:56;100797.50;;;-13.68;41.91
42887;BME280;29032;56.028;92.904;2023-02-02T18:16:59;100788.41;;;-13.83;42.11
42887;BME280;29032;56.028;92.904;2023-02-02T18:22:01;100785.09;;;-13.96;41.63
42887;BME280;29032;56.028;92.904;2023-02-02T18:27:04;100781.47;;;-14.04;41.76
42887;BME280;29032;56.028;92.904;2023-02-02T18:32:08;100776.53;;;-14.02;41.75
42887;BME280;29032;56.028;92.904;2023-02-02T18:37:10;100780.69;;;-13.85;41.96
42887;BME280;29032;56.028;92.904;2023-02-02T18:42:12;100776.06;;;-13.65;41.52
42887;BME280;29032;56.028;92.904;2023-02-02T18:47:16;100787.59;;;-13.41;41.30
42887;BME280;29032;56.028;92.904;2023-02-02T18:52:18;100776.25;;;-13.31;40.70
42887;BME280;29032;56.028;92.904;2023-02-02T18:57:20;100783.72;;;-13.21;40.96
42887;BME280;29032;56.028;92.904;2023-02-02T19:02:24;100782.56;;;-13.20;41.15
42887;BME280;29032;56.028;92.904;2023-02-02T19:07:26;100774.28;;;-13.34;40.92
42887;BME280;29032;56.028;92.904;2023-02-02T19:12:28;100761.59;;;-13.57;40.89
42887;BME280;29032;56.028;92.904;2023-02-02T19:17:32;100770.31;;;-13.63;41.21
42887;BME280;29032;56.028;92.904;2023-02-02T19:22:34;100768.00;;;-13.65;41.26
42887;BME280;29032;56.028;92.904;2023-02-02T19:27:36;100764.16;;;-13.64;41.09
42887;BME280;29032;56.028;92.904;2023-02-02T19:32:40;100761.56;;;-13.80;41.00
42887;BME280;29032;56.028;92.904;2023-02-02T19:37:44;100766.47;;;-14.05;41.11
42887;BME280;29032;56.028;92.904;2023-02-02T19:42:48;100763.69;;;-14.31;41.64
42887;BME280;29032;56.028;92.904;2023-02-02T19:47:52;100753.47;;;-14.61;42.24
42887;BME280;29032;56.028;92.904;2023-02-02T19:52:55;100753.31;;;-14.68;42.54
42887;BME280;29032;56.028;92.904;2023-02-02T19:58:00;100748.41;;;-14.46;42.64
42887;BME280;29032;56.028;92.904;2023-02-02T20:03:04;100747.34;;;-14.42;41.89
42887;BME280;29032;56.028;92.904;2023-02-02T20:08:18;100754.22;;;-14.44;42.06
42887;BME280;29032;56.028;92.904;2023-02-02T20:13:21;100742.50;;;-14.71;42.02
42887;BME280;29032;56.028;92.904;2023-02-02T20:18:26;100745.13;;;-14.75;41.82
42887;BME280;29032;56.028;92.904;2023-02-02T20:23:37;100746.97;;;-14.79;41.85
42887;BME280;29032;56.028;92.904;2023-02-02T20:28:42;100748.88;;;-14.79;41.95
42887;BME280;29032;56.028;92.904;2023-02-02T20:33:48;100730.28;;;-14.69;41.80
42887;BME280;29032;56.028;92.904;2023-02-02T20:38:51;100726.41;;;-14.52;41.19
42887;BME280;29032;56.028;92.904;2023-02-02T20:43:53;100729.25;;;-14.64;41.70
42887;BME280;29032;56.028;92.904;2023-02-02T20:48:56;100731.69;;;-14.75;42.05
42887;BME280;29032;56.028;92.904;2023-02-02T20:53:59;100728.00;;;-14.86;42.25
42887;BME280;29032;56.028;92.904;2023-02-02T20:59:01;100718.09;;;-14.82;42.23
42887;BME280;29032;56.028;92.904;2023-02-02T21:04:05;100721.22;;;-14.80;42.14
42887;BME280;29032;56.028;92.904;2023-02-02T21:09:08;100712.47;;;-14.77;41.78
42887;BME280;29032;56.028;92.904;2023-02-02T21:14:10;100715.25;;;-14.89;41.26
42887;BME280;29032;56.028;92.904;2023-02-02T21:19:14;100710.72;;;-15.04;41.61
42887;BME280;29032;56.028;92.904;2023-02-02T21:24:16;100711.88;;;-15.21;42.07
42887;BME280;29032;56.028;92.904;2023-02-02T21:29:18;100713.25;;;-15.11;42.16
42887;BME280;29032;56.028;92.904;2023-02-02T21:34:21;100709.31;;;-14.98;41.78
42887;BME280;29032;56.028;92.904;2023-02-02T21:39:27;100710.81;;;-14.81;41.26
42887;BME280;29032;56.028;92.904;2023-02-02T21:44:31;100708.44;;;-14.67;41.34
42887;BME280;29032;56.028;92.904;2023-02-02T21:49:37;100701.88;;;-14.50;40.66
42887;BME280;29032;56.028;92.904;2023-02-02T21:54:40;100692.03;;;-14.43;40.65
42887;BME280;29032;56.028;92.904;2023-02-02T21:59:42;100702.97;;;-14.32;39.58
42887;BME280;29032;56.028;92.904;2023-02-02T22:04:46;100695.94;;;-14.60;39.03
42887;BME280;29032;56.028;92.904;2023-02-02T22:09:48;100689.00;;;-15.15;40.81
42887;BME280;29032;56.028;92.904;2023-02-02T22:14:55;100686.28;;;-15.34;41.27
42887;BME280;29032;56.028;92.904;2023-02-02T22:20:00;100678.91;;;-15.22;41.37
42887;BME280;29032;56.028;92.904;2023-02-02T22:25:17;100679.75;;;-15.18;41.25
42887;BME280;29032;56.028;92.904;2023-02-02T22:30:27;100679.56;;;-15.25;41.75
42887;BME280;29032;56.028;92.904;2023-02-02T22:35:31;100675.09;;;-15.21;41.18
42887;BME280;29032;56.028;92.904;2023-02-02T22:40:34;100656.72;;;-15.19;41.18
42887;BME280;29032;56.028;92.904;2023-02-02T22:45:36;100663.09;;;-15.07;41.09
42887;BME280;29032;56.028;92.904;2023-02-02T22:50:39;100662.53;;;-14.97;41.15
42887;BME280;29032;56.028;92.904;2023-02-02T22:55:42;100660.00;;;-14.90;41.00
42887;BME280;29032;56.028;92.904;2023-02-02T23:00:44;100650.34;;;-14.95;40.91
42887;BME280;29032;56.028;92.904;2023-02-02T23:05:47;100649.38;;;-15.02;40.60
42887;BME280;29032;56.028;92.904;2023-02-02T23:10:49;100638.78;;;-15.15;40.59
42887;BME280;29032;56.028;92.904;2023-02-02T23:15:52;100637.19;;;-15.35;40.63
42887;BME280;29032;56.028;92.904;2023-02-02T23:20:55;100636.16;;;-15.46;41.19
42887;BME280;29032;56.028;92.904;2023-02-02T23:25:57;100634.09;;;-15.37;40.96
42887;BME280;29032;56.028;92.904;2023-02-02T23:30:59;100627.75;;;-15.29;40.31
42887;BME280;29032;56.028;92.904;2023-02-02T23:36:03;100620.31;;;-15.16;40.93
42887;BME280;29032;56.028;92.904;2023-02-02T23:41:06;100621.84;;;-14.99;40.54
42887;BME280;29032;56.028;92.904;2023-02-02T23:46:08;100617.44;;;-14.88;38.66
42887;BME280;29032;56.028;92.904;2023-02-02T23:51:12;100612.88;;;-14.88;39.21
42887;BME280;29032;56.028;92.904;2023-02-02T23:56:14;100614.06;;;-15.04;38.44
